Sierra Vista, AZ (85650)

11:15 AM MST on August 24, 2016 (GMT -0700)
Canyon De Flores -Cochise County (N0NBH) | | Change Station

Elev 4645 ft 31.50 °N, 110.26 °W | Updated 2 minutes ago

Scattered Clouds
Scattered Clouds
82.7 °F
Feels Like 81 °F
N
0.0
Wind Variable Wind from WSW
Gusts 1.3 mph

Today
High -- | Low -- °F
--% Chance of Precip.
Yesterday
High -- | Low -- °F
Precip. -- in
Pressure 30.25 in
Visibility 10.0 miles
Clouds Few 7000 ft
Scattered Clouds 10000 ft
Heat Index 81 °F
Dew Point 50 °F
Humidity 32%
Rainfall 0.00 in
Snow Depth Not available.
5:52 AM 6:53 PM
Waning Gibbous, 55% visible
METAR KFHU 241758Z VRB05KT 10SM FEW070 SCT100 28/08 A3025 RMK AO2A SLPNO T02840084 10286 20174 PNO TSNO $
Pressure 30.25 in
Visibility 10.0 miles
Clouds Few 7000 ft
Scattered Clouds 10000 ft
Heat Index 81 °F
Dew Point 50 °F
Humidity 32%
Rainfall 0.00 in
Snow Depth Not available.
5:52 AM 6:53 PM
Waning Gibbous, 55% visible
METAR KFHU 241758Z VRB05KT 10SM FEW070 SCT100 28/08 A3025 RMK AO2A SLPNO T02840084 10286 20174 PNO TSNO $

10-Day Weather Forecast

Almanac

Astronomy

Aug. 24, 2016 Rise Set
Actual Time
Civil Twilight
Nautical Twilight
Astronomical Twilight
Moon
Length of Visible Light
Length of Day
Tomorrow will be .
, % of the Moon is Illuminated

Today's Extremes

State Highs State Lows

Community

WunderPhotos

Upload Photos

1,934,664 photos uploaded!

WunderBlog® & News

Nearby

Air Quality

  Air Quality AQ Index Pollutant
Not available.

Snow Depth

Station Depth Elevation

Earthquake Activity

City Distance Mag. Time & Date
Minimum magnitude displayed is 2.5.

Coastal Water Temperatures

Place Temperature

Stations

Nearby Weather Stations

Station Location Temp. Windchill Dew Point Humidity Wind Precip. Elev Updated Type
                   

Watches & Warnings

There are currently no watches in effect.